createdAt,value
2022-08-11T00:00:43.263Z,101851.72
2022-08-11T00:02:51.205Z,101805.28
2022-08-11T00:04:56.505Z,101816.19
2022-08-11T00:07:04.495Z,101839.44
2022-08-11T00:09:15.740Z,101819.16
2022-08-11T00:11:20.174Z,101793.31
2022-08-11T00:13:23.687Z,101847.50
2022-08-11T00:15:37.426Z,101837.88
2022-08-11T00:17:40.917Z,101846.44
2022-08-11T00:20:14.733Z,101859.28
2022-08-11T00:22:20.834Z,101833.59
2022-08-11T00:24:24.877Z,101817.59
2022-08-11T00:26:29.007Z,101852.84
2022-08-11T00:28:34.836Z,101860.88
2022-08-11T00:30:41.004Z,101832.06
2022-08-11T00:32:55.354Z,101836.06
2022-08-11T00:35:55.834Z,101828.56
2022-08-11T00:37:24.897Z,101796.22
2022-08-11T00:39:29.331Z,101773.47
2022-08-11T00:41:40.896Z,101821.28
2022-08-11T00:44:11.137Z,101868.03
2022-08-11T00:46:25.173Z,101870.94
2022-08-11T00:48:38.650Z,101845.50
2022-08-11T00:51:21.066Z,101850.81
2022-08-11T00:53:54.030Z,101866.53
2022-08-11T00:56:39.306Z,101865.72
2022-08-11T00:58:59.461Z,101876.84
2022-08-11T01:01:16.917Z,101872.53
2022-08-11T01:04:00.595Z,101851.91
2022-08-11T01:06:49.587Z,101841.97
2022-08-11T01:09:38.367Z,101874.75
2022-08-11T01:12:11.262Z,101872.59
2022-08-11T01:14:38.558Z,101868.28
2022-08-11T01:17:31.625Z,101873.03
2022-08-11T01:20:45.970Z,101875.66
2022-08-11T01:22:51.809Z,101874.56
2022-08-11T01:25:17.588Z,101875.56
2022-08-11T01:28:08.260Z,101875.78
2022-08-11T01:30:54.466Z,101859.41
2022-08-11T01:33:21.604Z,101870.09
2022-08-11T01:35:53.693Z,101877.56
2022-08-11T01:38:40.042Z,101871.69
2022-08-11T01:41:20.719Z,101859.38
2022-08-11T01:44:31.604Z,101874.38
2022-08-11T01:47:02.847Z,101870.03
2022-08-11T01:50:05.974Z,101880.19
2022-08-11T01:52:30.950Z,101827.97
2022-08-11T01:54:59.496Z,101874.22
2022-08-11T01:57:37.982Z,101860.25
2022-08-11T01:59:51.217Z,101849.00
2022-08-11T02:02:42.293Z,101841.44
2022-08-11T02:05:24.026Z,101863.38
2022-08-11T02:07:58.857Z,101884.59
2022-08-11T02:11:02.957Z,101878.38
2022-08-11T02:13:11.757Z,101877.03
2022-08-11T02:15:43.820Z,101825.78
2022-08-11T02:18:10.770Z,101866.97
2022-08-11T02:20:45.406Z,101848.38
2022-08-11T02:24:04.976Z,101856.38
2022-08-11T02:26:22.674Z,101877.78
2022-08-11T02:28:54.951Z,101869.81
2022-08-11T02:32:24.175Z,101859.66
2022-08-11T02:34:40.526Z,101866.53
2022-08-11T02:36:58.621Z,101868.91
2022-08-11T02:39:10.082Z,101845.81
2022-08-11T02:41:55.575Z,101873.31
2022-08-11T02:44:21.160Z,101869.00
2022-08-11T02:46:50.834Z,101852.91
2022-08-11T02:49:26.184Z,101855.53
2022-08-11T02:52:09.882Z,101863.88
2022-08-11T02:54:23.831Z,101855.84
2022-08-11T02:56:57.769Z,101857.69
2022-08-11T02:59:50.323Z,101856.31
2022-08-11T03:02:25.308Z,101853.34
2022-08-11T03:04:51.945Z,101864.41
2022-08-11T03:07:29.038Z,101864.03
2022-08-11T03:09:38.258Z,101858.31
2022-08-11T03:12:15.142Z,101831.75
2022-08-11T03:14:48.473Z,101820.56
2022-08-11T03:17:22.595Z,101854.84
2022-08-11T03:19:46.649Z,101815.56
2022-08-11T03:22:03.536Z,101838.09
2022-08-11T03:24:22.546Z,101829.66
2022-08-11T03:26:48.661Z,101844.06
2022-08-11T03:29:25.107Z,101846.22
2022-08-11T03:31:35.952Z,101789.09
2022-08-11T03:34:12.795Z,101826.53
2022-08-11T03:37:16.426Z,101870.81
2022-08-11T03:39:34.738Z,101837.31
2022-08-11T03:42:04.172Z,101815.75
2022-08-11T03:44:48.197Z,101872.84
2022-08-11T03:47:03.580Z,101838.59
2022-08-11T03:49:28.306Z,101867.22
2022-08-11T03:51:51.516Z,101851.38
2022-08-11T03:54:16.341Z,101864.31
2022-08-11T03:57:10.987Z,101866.88
2022-08-11T03:59:45.333Z,101871.06
2022-08-11T04:02:14.531Z,101873.16
2022-08-11T04:04:36.927Z,101874.78
2022-08-11T04:07:26.561Z,101848.06
2022-08-11T04:10:06.904Z,101858.94
2022-08-11T04:13:17.254Z,101825.94
2022-08-11T04:16:00.843Z,101819.06
2022-08-11T04:19:02.162Z,101864.66
2022-08-11T04:21:35.406Z,101856.91
2022-08-11T04:24:35.657Z,101857.72
2022-08-11T04:27:20.503Z,101866.72
2022-08-11T04:30:00.521Z,101864.31
2022-08-11T04:32:26.635Z,101863.78
2022-08-11T04:35:02.223Z,101821.06
2022-08-11T04:37:57.853Z,101876.22
2022-08-11T04:40:31.117Z,101885.56
2022-08-11T04:43:23.596Z,101877.66
2022-08-11T04:45:46.004Z,101879.63
2022-08-11T04:49:02.576Z,101871.38
2022-08-11T04:51:45.047Z,101878.16
2022-08-11T04:54:34.178Z,101873.97
2022-08-11T04:56:57.519Z,101845.31
2022-08-11T04:59:48.990Z,101881.34
2022-08-11T05:02:27.047Z,101887.63
2022-08-11T05:05:28.402Z,101884.31
2022-08-11T05:08:09.829Z,101872.63
2022-08-11T05:10:34.198Z,101867.19
2022-08-11T05:12:54.102Z,101851.31
2022-08-11T05:15:25.654Z,101865.91
2022-08-11T05:18:18.561Z,101854.75
2022-08-11T05:20:42.654Z,101749.50
2022-08-11T05:23:11.626Z,101849.69
2022-08-11T05:26:43.422Z,101869.41
2022-08-11T05:28:29.884Z,101884.31
2022-08-11T05:30:51.484Z,101801.44
2022-08-11T05:33:30.924Z,101878.09
2022-08-11T05:36:01.746Z,101883.84
2022-08-11T05:38:35.655Z,101886.41
2022-08-11T05:41:00.265Z,101836.19
2022-08-11T05:43:31.194Z,101871.88
2022-08-11T05:46:02.355Z,101890.72
2022-08-11T05:48:25.885Z,101866.44
2022-08-11T05:50:47.747Z,101865.19
2022-08-11T05:53:13.530Z,101797.84
2022-08-11T05:56:01.940Z,101881.88
2022-08-11T05:58:08.118Z,101899.84
2022-08-11T06:00:12.157Z,101883.06
2022-08-11T06:02:15.601Z,101852.31
2022-08-11T06:04:23.038Z,101818.69
2022-08-11T06:06:27.252Z,101891.88
2022-08-11T06:08:37.111Z,101859.28
2022-08-11T06:10:45.465Z,101847.25
2022-08-11T06:12:55.934Z,101901.44
2022-08-11T06:15:10.996Z,101878.44
2022-08-11T06:17:13.965Z,101761.50
2022-08-11T06:19:23.128Z,101858.63
2022-08-11T06:21:26.147Z,101859.41
2022-08-11T06:23:33.618Z,101854.56
2022-08-11T06:25:39.433Z,101841.72
2022-08-11T06:27:45.730Z,101907.88
2022-08-11T06:29:55.344Z,101770.97
2022-08-11T06:32:03.194Z,101908.78
2022-08-11T06:34:08.561Z,101908.69
2022-08-11T06:36:27.439Z,101909.75
2022-08-11T06:39:22.183Z,101904.78
2022-08-11T06:41:57.839Z,101885.47
2022-08-11T06:44:19.026Z,101854.16
2022-08-11T06:46:38.160Z,101910.03
2022-08-11T06:48:41.495Z,101881.13
2022-08-11T06:51:12.702Z,101711.28
2022-08-11T06:53:19.795Z,101896.84
2022-08-11T06:55:56.722Z,101811.66
2022-08-11T06:58:22.460Z,101876.03
2022-08-11T07:00:29.363Z,101871.13
2022-08-11T07:02:43.828Z,101897.16
2022-08-11T07:05:45.783Z,101875.09
2022-08-11T07:08:43.639Z,101889.00
2022-08-11T07:11:37.173Z,101889.88
2022-08-11T07:14:00.184Z,101867.53
2022-08-11T07:16:12.138Z,101835.38
2022-08-11T07:18:56.386Z,101882.91
2022-08-11T07:22:00.457Z,101865.97
2022-08-11T07:24:16.315Z,101881.13
2022-08-11T07:26:42.914Z,101880.91
2022-08-11T07:28:55.428Z,101879.34
2022-08-11T07:31:05.152Z,101877.69
2022-08-11T07:33:09.457Z,101829.38
2022-08-11T07:35:17.465Z,101874.63
2022-08-11T07:37:23.266Z,101858.34
2022-08-11T07:39:33.403Z,101863.59
2022-08-11T07:41:36.281Z,101849.78
2022-08-11T07:43:41.230Z,101851.16
2022-08-11T07:46:04.749Z,101876.00
2022-08-11T07:48:28.744Z,101824.03
2022-08-11T07:50:55.543Z,101860.44
2022-08-11T07:53:00.108Z,101868.13
2022-08-11T07:55:12.715Z,101874.22
2022-08-11T07:58:13.756Z,101857.72
2022-08-11T08:00:16.177Z,101863.97
2022-08-11T08:02:38.659Z,101857.03
2022-08-11T08:05:00.656Z,101795.44
2022-08-11T08:07:24.166Z,101864.41
2022-08-11T08:09:46.517Z,101815.06
2022-08-11T08:12:08.686Z,101809.22
2022-08-11T08:14:31.216Z,101837.06
2022-08-11T08:16:53.813Z,101853.97
2022-08-11T08:18:56.602Z,101809.41
2022-08-11T08:21:12.175Z,101821.34
2022-08-11T08:23:15.571Z,101832.16
2022-08-11T08:25:18.744Z,101819.25
2022-08-11T08:27:22.337Z,101835.13
2022-08-11T08:29:50.964Z,101761.19
2022-08-11T08:31:55.023Z,101797.97
2022-08-11T08:33:57.818Z,101803.16
2022-08-11T08:36:11.949Z,101833.94
2022-08-11T08:38:15.397Z,101837.94
2022-08-11T08:40:18.808Z,101781.72
2022-08-11T08:42:33.306Z,101787.78
2022-08-11T08:44:44.943Z,101842.03
2022-08-11T08:46:55.586Z,101823.09
2022-08-11T08:49:03.020Z,101810.22
2022-08-11T08:51:58.690Z,101842.44
2022-08-11T08:54:02.482Z,101817.03
2022-08-11T08:56:07.888Z,101831.94
2022-08-11T08:58:11.058Z,101800.13
2022-08-11T09:00:20.788Z,101728.03
2022-08-11T09:02:34.348Z,101827.75
2022-08-11T09:04:48.064Z,101846.31
2022-08-11T09:06:52.486Z,101842.63
2022-08-11T09:08:56.277Z,101834.75
2022-08-11T09:11:19.035Z,101759.38
2022-08-11T09:13:21.738Z,101825.88
2022-08-11T09:15:26.148Z,101832.56
2022-08-11T09:17:45.725Z,101818.41
2022-08-11T09:19:58.709Z,101812.97
2022-08-11T09:22:19.770Z,101810.78
2022-08-11T09:24:42.267Z,101801.47
2022-08-11T09:27:01.099Z,101784.03
2022-08-11T09:29:04.857Z,101829.66
2022-08-11T09:31:07.897Z,101806.09
2022-08-11T09:33:14.537Z,101826.38
2022-08-11T09:35:18.097Z,101821.09
2022-08-11T09:37:54.160Z,101821.22
2022-08-11T09:40:18.279Z,101802.09
2022-08-11T09:42:24.007Z,101820.31
2022-08-11T09:44:45.996Z,101800.63
2022-08-11T09:46:52.621Z,101819.34
2022-08-11T09:49:02.484Z,101800.19
2022-08-11T09:51:07.579Z,101794.84
2022-08-11T09:53:36.198Z,101727.56
2022-08-11T09:55:35.423Z,101793.34
2022-08-11T09:58:04.427Z,101807.53
2022-08-11T10:00:14.370Z,101730.16
2022-08-11T10:02:18.558Z,101771.53
2022-08-11T10:04:34.947Z,101772.09
2022-08-11T10:06:58.341Z,101762.44
2022-08-11T10:09:03.169Z,101781.44
2022-08-11T10:11:10.361Z,101763.28
2022-08-11T10:14:30.158Z,101799.69
2022-08-11T10:16:15.447Z,101764.03
2022-08-11T10:18:51.556Z,101800.56
2022-08-11T10:21:00.867Z,101800.94
2022-08-11T10:23:23.354Z,101765.75
2022-08-11T10:25:44.893Z,101781.00
2022-08-11T10:28:28.266Z,101794.97
2022-08-11T10:30:50.195Z,101737.31
2022-08-11T10:33:11.421Z,101766.47
2022-08-11T10:35:26.187Z,101737.00
2022-08-11T10:38:06.352Z,101774.19
2022-08-11T10:39:57.839Z,101758.91
2022-08-11T10:42:35.012Z,101771.44
2022-08-11T10:44:53.049Z,101754.75
2022-08-11T10:47:14.509Z,101716.22
2022-08-11T10:49:19.037Z,101744.63
2022-08-11T10:51:50.082Z,101754.16
2022-08-11T10:54:12.430Z,101751.00
2022-08-11T10:56:35.862Z,101758.69
2022-08-11T10:58:49.608Z,101721.88
2022-08-11T11:00:56.976Z,101720.34
2022-08-11T11:03:22.419Z,101750.69
2022-08-11T11:05:30.795Z,101741.38
2022-08-11T11:07:44.448Z,101726.31
2022-08-11T11:09:49.136Z,101724.69
2022-08-11T11:12:14.358Z,101713.13
2022-08-11T11:14:46.738Z,101696.31
2022-08-11T11:17:11.252Z,101712.13
2022-08-11T11:19:19.241Z,101681.72
2022-08-11T11:21:22.267Z,101689.88
2022-08-11T11:23:39.736Z,101713.66
2022-08-11T11:26:27.510Z,101738.09
2022-08-11T11:29:02.107Z,101728.50
2022-08-11T11:31:33.515Z,101730.00
2022-08-11T11:34:33.234Z,101724.53
2022-08-11T11:36:48.395Z,101696.72
2022-08-11T11:38:51.439Z,101725.25
2022-08-11T11:41:13.199Z,101602.63
2022-08-11T11:43:15.990Z,101669.78
2022-08-11T11:45:24.370Z,101716.25
2022-08-11T11:47:27.426Z,101706.53
2022-08-11T11:49:32.561Z,101727.34
2022-08-11T11:51:37.238Z,101728.38
2022-08-11T11:53:44.171Z,101721.59
2022-08-11T11:55:47.434Z,101689.56
2022-08-11T11:58:11.007Z,101704.41
2022-08-11T12:00:43.298Z,101705.31
2022-08-11T12:02:46.508Z,101709.97
2022-08-11T12:04:49.146Z,101613.53
2022-08-11T12:07:12.234Z,101605.88
2022-08-11T12:09:18.499Z,101689.84
2022-08-11T12:11:43.702Z,101673.78
2022-08-11T12:13:50.504Z,101701.59
2022-08-11T12:16:05.424Z,101681.91
2022-08-11T12:18:17.180Z,101652.81
2022-08-11T12:20:32.032Z,101669.81
2022-08-11T12:23:06.571Z,101639.88
2022-08-11T12:25:28.091Z,101635.06
2022-08-11T12:27:31.723Z,101639.38
2022-08-11T12:29:35.015Z,101641.88
2022-08-11T12:31:40.539Z,101642.34
2022-08-11T12:33:43.992Z,101664.78
2022-08-11T12:36:00.793Z,101669.53
2022-08-11T12:38:10.698Z,101638.41
2022-08-11T12:40:42.495Z,101672.00
2022-08-11T12:43:22.247Z,101671.75
2022-08-11T12:45:28.384Z,101672.34
2022-08-11T12:48:57.497Z,101642.59
2022-08-11T12:50:34.319Z,101652.97
2022-08-11T12:52:50.259Z,101640.53
2022-08-11T12:55:13.766Z,101649.59
2022-08-11T12:57:57.840Z,101633.28
2022-08-11T13:00:20.022Z,101631.50
2022-08-11T13:02:44.457Z,101622.19
2022-08-11T13:04:59.393Z,101655.00
2022-08-11T13:07:03.216Z,101592.09
2022-08-11T13:09:07.981Z,101639.28
2022-08-11T13:11:56.041Z,101638.03
2022-08-11T13:13:57.951Z,101638.97
2022-08-11T13:16:00.997Z,101619.53
2022-08-11T13:18:08.082Z,101637.25
2022-08-11T13:20:15.285Z,101627.75
2022-08-11T13:22:23.059Z,101622.56
2022-08-11T13:24:25.833Z,101478.56
2022-08-11T13:26:43.612Z,101633.41
2022-08-11T13:28:52.070Z,101610.44
2022-08-11T13:31:14.775Z,101621.06
2022-08-11T13:33:18.573Z,101620.41
2022-08-11T13:35:23.751Z,101606.63
2022-08-11T13:38:18.305Z,101597.81
2022-08-11T13:39:49.337Z,101574.91
2022-08-11T13:41:55.255Z,101576.25
2022-08-11T13:43:58.698Z,101605.72
2022-08-11T13:46:22.598Z,101597.56
2022-08-11T13:48:25.971Z,101536.84
2022-08-11T13:50:48.688Z,101609.09
2022-08-11T13:52:53.304Z,101597.41
2022-08-11T13:54:57.497Z,101615.16
2022-08-11T13:57:09.134Z,101611.88
2022-08-11T13:59:14.751Z,101602.31
2022-08-11T14:02:03.190Z,101596.88
2022-08-11T14:04:31.275Z,101607.50
2022-08-11T14:06:07.921Z,101562.50
2022-08-11T14:08:38.055Z,101569.16
2022-08-11T14:10:41.214Z,101578.88
2022-08-11T14:13:14.232Z,101559.31
2022-08-11T14:15:25.335Z,101589.66
2022-08-11T14:17:47.309Z,101542.16
2022-08-11T14:19:53.679Z,101561.16
2022-08-11T14:22:10.043Z,101563.84
2022-08-11T14:24:13.384Z,101524.72
2022-08-11T14:26:24.001Z,101522.81
2022-08-11T14:28:31.714Z,101543.75
2022-08-11T14:31:00.476Z,101522.69
2022-08-11T14:33:14.257Z,101542.47
2022-08-11T14:35:21.409Z,101558.56
2022-08-11T14:37:27.905Z,101518.41
2022-08-11T14:39:36.154Z,101489.03
2022-08-11T14:42:10.008Z,101566.81
2022-08-11T14:44:35.060Z,101568.84
2022-08-11T14:46:58.484Z,101568.84
2022-08-11T14:49:01.502Z,101525.97
2022-08-11T14:51:05.582Z,101532.00
2022-08-11T14:53:16.077Z,101565.47
2022-08-11T14:55:44.700Z,101551.22
2022-08-11T14:57:55.615Z,101566.25
2022-08-11T15:00:02.588Z,101565.47
2022-08-11T15:02:24.317Z,101477.94
2022-08-11T15:04:34.954Z,101530.63
2022-08-11T15:06:39.815Z,101536.38
2022-08-11T15:08:54.868Z,101537.63
2022-08-11T15:10:57.497Z,101558.22
2022-08-11T15:13:01.592Z,101526.09
2022-08-11T15:15:25.944Z,101512.66
2022-08-11T15:17:42.713Z,101539.47
2022-08-11T15:20:05.098Z,101531.91
2022-08-11T15:22:28.286Z,101521.56
2022-08-11T15:24:31.468Z,101524.75
2022-08-11T15:26:58.954Z,101536.66
2022-08-11T15:29:23.454Z,101519.88
2022-08-11T15:31:49.524Z,101515.50
2022-08-11T15:34:18.077Z,101531.78
2022-08-11T15:36:40.275Z,101484.03
2022-08-11T15:38:55.509Z,101536.25
2022-08-11T15:41:19.107Z,101521.13
2022-08-11T15:43:46.998Z,101526.34
2022-08-11T15:45:54.232Z,101529.50
2022-08-11T15:48:07.589Z,101511.19
2022-08-11T15:50:19.922Z,101460.81
2022-08-11T15:52:25.961Z,101522.38
2022-08-11T15:54:32.509Z,101515.91
2022-08-11T15:56:39.155Z,101487.44
2022-08-11T15:59:40.989Z,101519.31
2022-08-11T16:01:49.020Z,101524.50
2022-08-11T16:04:13.355Z,101488.34
2022-08-11T16:06:16.779Z,101468.66
2022-08-11T16:08:32.708Z,101405.16
2022-08-11T16:10:37.326Z,101504.16
2022-08-11T16:13:20.412Z,101415.53
2022-08-11T16:15:42.052Z,101504.19
2022-08-11T16:17:50.346Z,101514.91
2022-08-11T16:19:55.966Z,101487.44
2022-08-11T16:21:58.548Z,101475.34
2022-08-11T16:24:06.402Z,101504.75
2022-08-11T16:27:08.579Z,101505.97
2022-08-11T16:28:35.293Z,101502.47
2022-08-11T16:30:43.907Z,101506.22
2022-08-11T16:32:53.655Z,101498.41
2022-08-11T16:35:28.714Z,101492.78
2022-08-11T16:37:54.545Z,101495.25
2022-08-11T16:39:57.400Z,101480.91
2022-08-11T16:43:04.619Z,101469.59
2022-08-11T16:45:00.296Z,101484.50
2022-08-11T16:47:06.171Z,101503.50
2022-08-11T16:49:18.525Z,101484.38
2022-08-11T16:51:22.864Z,101481.09
2022-08-11T16:53:50.609Z,101489.81
2022-08-11T16:55:52.743Z,101472.38
2022-08-11T16:58:14.931Z,101496.34
2022-08-11T17:00:18.288Z,101461.72
2022-08-11T17:02:43.765Z,101488.53
2022-08-11T17:05:11.831Z,101500.28
2022-08-11T17:07:41.987Z,101439.94
2022-08-11T17:10:39.051Z,101490.41
2022-08-11T17:12:51.058Z,101487.38
2022-08-11T17:14:58.860Z,101481.72
2022-08-11T17:17:04.003Z,101483.50
2022-08-11T17:19:17.252Z,101494.69
2022-08-11T17:21:30.002Z,101498.38
2022-08-11T17:23:48.064Z,101438.63
2022-08-11T17:25:59.322Z,101479.28
2022-08-11T17:28:08.165Z,101475.22
2022-08-11T17:30:11.968Z,101481.28
2022-08-11T17:32:56.070Z,101478.75
2022-08-11T17:35:24.872Z,101489.78
2022-08-11T17:37:29.605Z,101488.28
2022-08-11T17:39:32.800Z,101495.50
2022-08-11T17:41:54.839Z,101501.72
2022-08-11T17:44:18.121Z,101487.78
2022-08-11T17:46:40.573Z,101504.19
2022-08-11T17:48:48.231Z,101493.78
2022-08-11T17:50:56.022Z,101476.28
2022-08-11T17:53:18.866Z,101506.41
2022-08-11T17:55:52.120Z,101499.28
2022-08-11T17:58:15.838Z,101510.00
2022-08-11T18:00:18.700Z,101496.31
2022-08-11T18:02:49.062Z,101507.03
2022-08-11T18:04:54.462Z,101470.88
2022-08-11T18:06:57.462Z,101471.91
2022-08-11T18:09:20.024Z,101493.59
2022-08-11T18:12:06.454Z,101444.16
2022-08-11T18:14:26.806Z,101460.03
2022-08-11T18:16:48.618Z,101521.63
2022-08-11T18:19:09.741Z,101499.88
2022-08-11T18:21:34.969Z,101496.56
2022-08-11T18:23:56.056Z,101505.16
2022-08-11T18:26:21.130Z,101478.47
2022-08-11T18:28:52.421Z,101472.13
2022-08-11T18:31:18.563Z,101512.91
2022-08-11T18:34:05.865Z,101521.00
2022-08-11T18:36:30.523Z,101524.34
2022-08-11T18:38:51.607Z,101486.72
2022-08-11T18:41:13.528Z,101529.09
2022-08-11T18:43:40.179Z,101540.19
2022-08-11T18:46:06.710Z,101545.13
2022-08-11T18:48:35.762Z,101545.88
2022-08-11T18:51:00.663Z,101447.91
2022-08-11T18:53:45.033Z,101542.53
2022-08-11T18:56:07.108Z,101509.13
2022-08-11T18:58:30.548Z,101540.91
2022-08-11T19:00:55.254Z,101507.81
2022-08-11T19:03:19.063Z,101543.84
2022-08-11T19:06:32.350Z,101563.81
2022-08-11T19:08:23.439Z,101548.72
2022-08-11T19:10:45.104Z,101545.31
2022-08-11T19:13:07.794Z,101545.41
2022-08-11T19:15:30.001Z,101554.47
2022-08-11T19:17:54.721Z,101506.06
2022-08-11T19:20:17.239Z,101566.50
2022-08-11T19:22:40.225Z,101567.09
2022-08-11T19:25:03.427Z,101541.00
2022-08-11T19:27:25.203Z,101539.53
2022-08-11T19:30:04.960Z,101570.19
2022-08-11T19:32:31.070Z,101494.06
2022-08-11T19:34:52.899Z,101550.88
2022-08-11T19:37:14.828Z,101559.16
2022-08-11T19:39:38.870Z,101555.97
2022-08-11T19:42:01.734Z,101565.88
2022-08-11T19:44:23.304Z,101562.41
2022-08-11T19:46:45.590Z,101443.66
2022-08-11T19:49:12.639Z,101568.56
2022-08-11T19:51:34.483Z,101560.19
2022-08-11T19:53:57.428Z,101543.94
2022-08-11T19:56:22.214Z,101517.09
2022-08-11T19:58:43.958Z,101530.63
2022-08-11T20:01:05.446Z,101559.59
2022-08-11T20:03:30.473Z,101532.34
2022-08-11T20:05:59.757Z,101514.75
2022-08-11T20:08:21.704Z,101456.47
2022-08-11T20:10:44.560Z,101487.31
2022-08-11T20:13:06.464Z,101549.56
2022-08-11T20:15:29.277Z,101454.16
2022-08-11T20:17:57.002Z,101566.38
2022-08-11T20:20:23.893Z,101563.41
2022-08-11T20:22:48.633Z,101468.97
2022-08-11T20:25:10.607Z,101567.09
2022-08-11T20:27:32.150Z,101536.03
2022-08-11T20:29:55.612Z,101573.09
2022-08-11T20:32:18.122Z,101529.28
2022-08-11T20:34:39.632Z,101498.63
2022-08-11T20:37:01.659Z,101532.38
2022-08-11T20:39:24.460Z,101531.50
2022-08-11T20:41:57.744Z,101575.16
2022-08-11T20:44:22.795Z,101507.53
2022-08-11T20:46:44.723Z,101461.97
2022-08-11T20:49:09.966Z,101556.72
2022-08-11T20:51:33.815Z,101540.97
2022-08-11T20:54:05.737Z,101477.59
2022-08-11T20:56:29.096Z,101559.22
2022-08-11T21:01:38.377Z,101570.97
2022-08-11T21:04:00.731Z,101550.63
2022-08-11T21:06:26.307Z,101554.31
2022-08-11T21:08:56.720Z,101473.84
2022-08-11T21:11:27.935Z,101585.69
2022-08-11T21:13:55.991Z,101499.78
2022-08-11T21:16:25.214Z,101580.47
2022-08-11T21:18:49.982Z,101583.75
2022-08-11T21:21:16.493Z,101470.34
2022-08-11T21:23:38.284Z,101585.03
2022-08-11T21:26:08.072Z,101598.00
2022-08-11T21:28:30.866Z,101593.97
2022-08-11T21:30:55.749Z,101579.41
2022-08-11T21:33:21.410Z,101570.66
2022-08-11T21:35:45.015Z,101610.41
2022-08-11T21:38:09.247Z,101521.91
2022-08-11T21:40:33.631Z,101555.44
2022-08-11T21:43:01.185Z,101575.28
2022-08-11T21:45:25.631Z,101599.47
2022-08-11T21:47:49.749Z,101610.91
2022-08-11T21:50:22.918Z,101567.69
2022-08-11T21:52:45.017Z,101590.41
2022-08-11T21:55:07.697Z,101579.41
2022-08-11T21:57:32.831Z,101591.72
2022-08-11T22:00:14.407Z,101615.53
2022-08-11T22:02:37.693Z,101615.84
2022-08-11T22:05:00.462Z,101575.44
2022-08-11T22:07:21.749Z,101581.91
2022-08-11T22:09:43.323Z,101591.81
2022-08-11T22:12:34.035Z,101599.09
2022-08-11T22:14:46.375Z,101525.16
2022-08-11T22:17:08.109Z,101530.31
2022-08-11T22:19:30.620Z,101522.66
2022-08-11T22:22:03.295Z,101614.56
2022-08-11T22:24:30.062Z,101610.66
2022-08-11T22:26:53.913Z,101596.53
2022-08-11T22:29:14.987Z,101602.19
2022-08-11T22:31:36.690Z,101607.53
2022-08-11T22:34:02.183Z,101623.56
2022-08-11T22:36:24.076Z,101590.56
2022-08-11T22:38:46.119Z,101626.81
2022-08-11T22:41:07.439Z,101588.94
2022-08-11T22:43:28.784Z,101607.53
2022-08-11T22:45:50.135Z,101586.91
2022-08-11T22:48:11.991Z,101627.16
2022-08-11T22:50:33.782Z,101620.50
2022-08-11T22:52:55.425Z,101616.00
2022-08-11T22:55:17.945Z,101613.31
2022-08-11T22:57:40.257Z,101630.88
2022-08-11T23:00:22.659Z,101609.25
2022-08-11T23:02:52.355Z,101599.06
2022-08-11T23:05:13.875Z,101632.50
2022-08-11T23:07:49.764Z,101622.41
2022-08-11T23:10:13.598Z,101585.66
2022-08-11T23:12:40.084Z,101599.47
2022-08-11T23:15:02.294Z,101604.91
2022-08-11T23:17:23.942Z,101598.63
2022-08-11T23:20:07.835Z,101620.00
2022-08-11T23:22:37.197Z,101600.31
2022-08-11T23:25:08.744Z,101619.53
2022-08-11T23:27:39.423Z,101608.34
2022-08-11T23:30:05.095Z,101576.66
2022-08-11T23:32:26.361Z,101636.63
2022-08-11T23:35:04.775Z,101653.19
2022-08-11T23:37:40.493Z,101626.50
2022-08-11T23:40:01.498Z,101588.38
2022-08-11T23:42:24.007Z,101623.25
2022-08-11T23:44:45.607Z,101587.00
2022-08-11T23:47:11.586Z,101623.25
2022-08-11T23:49:33.337Z,101646.44
2022-08-11T23:51:58.022Z,101624.84
2022-08-11T23:54:19.910Z,101606.78
2022-08-11T23:56:41.748Z,101622.00
2022-08-11T23:59:03.910Z,101638.53
